Time;durP1;ratioP1;P1;durP2;ratioP2;P2;SDS_P1;SDS_P2;PMS_P1;PMS_P2;Temp;Humidity;BMP_temperature;BMP_pressure;BME280_temperature;BME280_humidity;BME280_pressure;Samples;Min_cycle;Max_cycle;Signal;HPM_P1;HPM_P2
2023/07/21 00:01:23;;;;;;;3.78;1.85;;;;;;;;;;5884771;28;20048;-76
2023/07/21 00:04:14;;;;;;;2.50;1.90;;;;;;;;;;5906510;28;20060;-77
2023/07/21 00:07:05;;;;;;;5.40;2.20;;;;;;;;;;5906654;28;20052;-75
2023/07/21 00:09:59;;;;;;;4.65;1.90;;;;;;;;;;5907080;28;20452;-78
2023/07/21 00:12:49;;;;;;;3.88;1.95;;;;;;;;;;5906444;28;20048;-76
2023/07/21 00:15:40;;;;;;;3.30;2.20;;;;;;;;;;5906507;28;20040;-78
2023/07/21 00:18:33;;;;;;;3.10;1.90;;;;;;;;;;5906128;28;20055;-75
2023/07/21 00:21:24;;;;;;;4.63;2.03;;;;;;;;;;5906258;28;20052;-77
2023/07/21 00:24:17;;;;;;;2.75;1.98;;;;;;;;;;5906311;28;20044;-77
2023/07/21 00:27:08;;;;;;;3.05;2.10;;;;;;;;;;5904138;28;20141;-77
2023/07/21 00:29:59;;;;;;;3.53;2.60;;;;;;;;;;5906681;28;20055;-77
2023/07/21 00:32:50;;;;;;;3.70;2.00;;;;;;;;;;5905882;28;20162;-77
2023/07/21 00:35:41;;;;;;;2.80;1.90;;;;;;;;;;5904780;28;20055;-76
2023/07/21 00:38:32;;;;;;;5.28;1.95;;;;;;;;;;5904622;28;20048;-79
2023/07/21 00:41:23;;;;;;;3.78;2.15;;;;;;;;;;5906246;28;20048;-77
2023/07/21 00:44:14;;;;;;;8.35;1.83;;;;;;;;;;5905994;28;20056;-77
2023/07/21 00:47:05;;;;;;;2.15;1.60;;;;;;;;;;5905863;28;20048;-77
2023/07/21 00:49:59;;;;;;;3.20;2.00;;;;;;;;;;5906066;28;20410;-77
2023/07/21 00:52:50;;;;;;;3.65;1.75;;;;;;;;;;5904338;28;20394;-76
2023/07/21 00:55:42;;;;;;;5.22;1.80;;;;;;;;;;5903939;28;20052;-76
2023/07/21 00:58:33;;;;;;;5.93;2.05;;;;;;;;;;5904320;28;20040;-76
2023/07/21 01:01:23;;;;;;;2.70;2.10;;;;;;;;;;5905542;28;20411;-78
2023/07/21 01:04:16;;;;;;;10.10;2.28;;;;;;;;;;5905627;28;20056;-76
2023/07/21 01:07:09;;;;;;;4.18;1.80;;;;;;;;;;5905085;28;20056;-76
2023/07/21 01:10:01;;;;;;;3.22;1.88;;;;;;;;;;5906291;28;20048;-77
2023/07/21 01:12:52;;;;;;;3.53;1.55;;;;;;;;;;5906645;28;20502;-76
2023/07/21 01:15:48;;;;;;;7.07;2.25;;;;;;;;;;5908489;28;20049;-77
2023/07/21 01:18:41;;;;;;;6.43;2.30;;;;;;;;;;5892830;28;20044;-77
2023/07/21 01:21:41;;;;;;;2.58;1.75;;;;;;;;;;5908844;28;20120;-77
2023/07/21 01:24:54;;;;;;;6.47;2.30;;;;;;;;;;5908589;28;20051;-75
2023/07/21 01:27:48;;;;;;;3.80;1.88;;;;;;;;;;5909796;28;20068;-76
2023/07/21 01:30:40;;;;;;;3.55;1.88;;;;;;;;;;5909881;28;20053;-75
2023/07/21 01:33:32;;;;;;;6.28;1.98;;;;;;;;;;5908715;28;20055;-75
2023/07/21 01:36:26;;;;;;;3.45;1.95;;;;;;;;;;5908105;28;20129;-76
2023/07/21 01:39:17;;;;;;;4.47;1.70;;;;;;;;;;5908328;28;20055;-77
2023/07/21 01:42:09;;;;;;;4.00;2.28;;;;;;;;;;5891658;28;20044;-75
2023/07/21 01:45:03;;;;;;;3.67;2.30;;;;;;;;;;5908380;28;20062;-76
2023/07/21 01:47:55;;;;;;;7.25;2.55;;;;;;;;;;5908667;28;20044;-76
2023/07/21 01:50:48;;;;;;;4.95;1.92;;;;;;;;;;5909430;28;20498;-77
2023/07/21 01:53:41;;;;;;;3.42;2.20;;;;;;;;;;5908133;28;20286;-75
2023/07/21 01:56:40;;;;;;;7.03;2.22;;;;;;;;;;5907771;28;20052;-77
2023/07/21 01:59:31;;;;;;;6.30;2.50;;;;;;;;;;5909376;28;20052;-75
2023/07/21 02:02:23;;;;;;;3.80;1.88;;;;;;;;;;5909235;28;20056;-76
2023/07/21 02:05:23;;;;;;;4.60;2.30;;;;;;;;;;5907443;28;20059;-76
2023/07/21 02:08:14;;;;;;;13.43;2.22;;;;;;;;;;5909203;28;20437;-78
2023/07/21 02:11:05;;;;;;;5.40;2.63;;;;;;;;;;5890961;28;20053;-76
2023/07/21 02:13:57;;;;;;;8.90;2.92;;;;;;;;;;5907617;28;20052;-75
2023/07/21 02:16:48;;;;;;;3.35;2.35;;;;;;;;;;5909340;28;20059;-77
2023/07/21 02:19:38;;;;;;;9.45;2.85;;;;;;;;;;5908241;28;20182;-77
2023/07/21 02:22:29;;;;;;;9.40;2.75;;;;;;;;;;5908811;28;20048;-76
2023/07/21 02:25:20;;;;;;;8.65;3.13;;;;;;;;;;5908809;28;20399;-75
2023/07/21 02:28:11;;;;;;;4.32;2.58;;;;;;;;;;5908559;28;20057;-77
2023/07/21 02:31:04;;;;;;;7.90;2.80;;;;;;;;;;5908592;28;20510;-76
2023/07/21 02:33:55;;;;;;;7.00;3.10;;;;;;;;;;5909122;28;20156;-76
2023/07/21 02:36:45;;;;;;;4.78;2.55;;;;;;;;;;5908374;28;20044;-77
2023/07/21 02:39:36;;;;;;;9.90;3.05;;;;;;;;;;5908366;28;20044;-77
2023/07/21 02:42:27;;;;;;;8.13;2.88;;;;;;;;;;5908161;28;20040;-77
2023/07/21 02:45:18;;;;;;;8.13;2.35;;;;;;;;;;5908184;28;20040;-76
2023/07/21 02:48:10;;;;;;;8.05;2.85;;;;;;;;;;5908012;28;20057;-78
2023/07/21 02:51:00;;;;;;;4.20;2.50;;;;;;;;;;5908361;28;20404;-76
2023/07/21 02:53:52;;;;;;;6.40;2.50;;;;;;;;;;5908195;28;20214;-77
2023/07/21 02:56:43;;;;;;;6.70;2.97;;;;;;;;;;5907719;28;20051;-77
2023/07/21 02:59:35;;;;;;;5.13;2.60;;;;;;;;;;5906698;28;20044;-77
2023/07/21 03:02:25;;;;;;;8.35;2.97;;;;;;;;;;5906551;28;20051;-78
2023/07/21 03:05:16;;;;;;;6.25;2.90;;;;;;;;;;5907456;28;20059;-76
2023/07/21 03:08:08;;;;;;;4.47;3.08;;;;;;;;;;5907938;28;20063;-77
2023/07/21 03:11:00;;;;;;;4.53;2.70;;;;;;;;;;5906835;28;20048;-77
2023/07/21 03:13:50;;;;;;;6.60;3.22;;;;;;;;;;5903017;28;20044;-77
2023/07/21 03:16:42;;;;;;;5.22;2.65;;;;;;;;;;5895763;28;20048;-78
2023/07/21 03:19:33;;;;;;;7.18;3.00;;;;;;;;;;5907169;28;20586;-77
2023/07/21 03:22:24;;;;;;;5.72;3.03;;;;;;;;;;5907413;28;20049;-75
2023/07/21 03:25:15;;;;;;;9.57;2.95;;;;;;;;;;5907419;28;20056;-77
2023/07/21 03:28:06;;;;;;;5.38;2.85;;;;;;;;;;5907051;28;20507;-78
2023/07/21 03:31:00;;;;;;;4.88;2.80;;;;;;;;;;5907654;28;20044;-77
2023/07/21 03:33:51;;;;;;;6.05;3.70;;;;;;;;;;5907361;28;20044;-76
2023/07/21 03:36:42;;;;;;;11.13;3.22;;;;;;;;;;5906826;28;20044;-77
2023/07/21 03:39:33;;;;;;;8.23;3.40;;;;;;;;;;5906942;28;20045;-77
2023/07/21 03:42:24;;;;;;;9.82;3.05;;;;;;;;;;5907139;28;20049;-78
2023/07/21 03:45:15;;;;;;;6.68;3.03;;;;;;;;;;5906668;28;20068;-77
2023/07/21 03:48:06;;;;;;;7.60;3.35;;;;;;;;;;5905489;28;20133;-79
2023/07/21 03:51:02;;;;;;;6.57;3.55;;;;;;;;;;5907502;28;20076;-78
2023/07/21 03:53:53;;;;;;;11.40;3.10;;;;;;;;;;5905628;28;20049;-78
2023/07/21 03:56:44;;;;;;;4.25;2.53;;;;;;;;;;5906456;28;20120;-78
2023/07/21 03:59:35;;;;;;;7.35;2.92;;;;;;;;;;5906476;28;20056;-77
2023/07/21 04:02:27;;;;;;;5.55;2.90;;;;;;;;;;5906828;28;20048;-77
2023/07/21 04:05:18;;;;;;;6.85;3.20;;;;;;;;;;5906451;28;20044;-77
2023/07/21 04:08:09;;;;;;;7.10;2.80;;;;;;;;;;5906230;28;20491;-77
2023/07/21 04:11:00;;;;;;;6.53;3.25;;;;;;;;;;5905325;28;20072;-79
2023/07/21 04:13:51;;;;;;;10.07;3.33;;;;;;;;;;5906840;28;20142;-77
2023/07/21 04:16:41;;;;;;;8.77;3.05;;;;;;;;;;5906629;28;20479;-77
2023/07/21 04:19:32;;;;;;;7.72;3.20;;;;;;;;;;5906241;28;20044;-78
2023/07/21 04:22:23;;;;;;;4.80;2.85;;;;;;;;;;5906148;28;20067;-78
2023/07/21 04:25:15;;;;;;;5.28;3.22;;;;;;;;;;5905832;28;20063;-77
2023/07/21 04:28:06;;;;;;;6.72;3.25;;;;;;;;;;5905920;28;20053;-77
2023/07/21 04:30:57;;;;;;;5.65;3.20;;;;;;;;;;5906511;28;20048;-78
2023/07/21 04:33:49;;;;;;;9.85;3.05;;;;;;;;;;5905921;28;20046;-77
2023/07/21 04:36:39;;;;;;;9.77;3.70;;;;;;;;;;5906115;28;20495;-78
2023/07/21 04:39:30;;;;;;;6.47;3.97;;;;;;;;;;5906133;28;20052;-77
2023/07/21 04:42:21;;;;;;;8.48;3.65;;;;;;;;;;5906066;28;20055;-77
2023/07/21 04:45:12;;;;;;;12.93;3.75;;;;;;;;;;5905205;28;20609;-77
2023/07/21 04:48:03;;;;;;;7.22;3.38;;;;;;;;;;5905777;28;20068;-77
2023/07/21 04:50:53;;;;;;;9.05;3.25;;;;;;;;;;5906272;28;20064;-78
2023/07/21 04:53:44;;;;;;;7.30;3.78;;;;;;;;;;5905415;28;20043;-77
2023/07/21 04:56:35;;;;;;;8.25;3.50;;;;;;;;;;5905459;28;20471;-78
2023/07/21 04:59:26;;;;;;;9.98;4.10;;;;;;;;;;5905870;28;20487;-77
2023/07/21 05:02:18;;;;;;;9.98;4.45;;;;;;;;;;5905223;28;20052;-77
2023/07/21 05:05:09;;;;;;;11.32;4.25;;;;;;;;;;5905191;28;20044;-77
2023/07/21 05:08:00;;;;;;;12.88;4.60;;;;;;;;;;5906074;28;20052;-77
2023/07/21 05:10:54;;;;;;;9.70;4.45;;;;;;;;;;5905416;28;20063;-76
2023/07/21 05:13:45;;;;;;;9.35;4.40;;;;;;;;;;5905324;28;20408;-76
2023/07/21 05:16:37;;;;;;;11.30;4.18;;;;;;;;;;5905388;28;20059;-76
2023/07/21 05:19:28;;;;;;;12.27;4.13;;;;;;;;;;5905151;28;20040;-77
2023/07/21 05:22:18;;;;;;;12.75;4.63;;;;;;;;;;5905325;28;20041;-79
2023/07/21 05:25:12;;;;;;;6.70;3.92;;;;;;;;;;5904021;28;20048;-77
2023/07/21 05:28:03;;;;;;;11.27;3.90;;;;;;;;;;5905242;28;20060;-79
2023/07/21 05:30:54;;;;;;;9.70;4.28;;;;;;;;;;5904266;28;20045;-78
2023/07/21 05:33:46;;;;;;;7.85;3.88;;;;;;;;;;5903808;28;20048;-78
2023/07/21 05:36:37;;;;;;;11.45;4.90;;;;;;;;;;5905264;28;20517;-78
2023/07/21 05:39:29;;;;;;;6.93;4.10;;;;;;;;;;5904932;28;20040;-78
2023/07/21 05:42:20;;;;;;;10.75;4.82;;;;;;;;;;5904965;28;20140;-78
2023/07/21 05:45:11;;;;;;;10.88;4.20;;;;;;;;;;5904992;28;20147;-77
2023/07/21 05:48:03;;;;;;;13.15;4.45;;;;;;;;;;5905073;28;20076;-79
2023/07/21 05:50:55;;;;;;;13.23;4.00;;;;;;;;;;5905790;28;20047;-77
2023/07/21 05:53:46;;;;;;;10.55;4.50;;;;;;;;;;5904813;28;20063;-78
2023/07/21 05:56:38;;;;;;;11.75;4.00;;;;;;;;;;5904917;28;20049;-77
2023/07/21 05:59:31;;;;;;;7.47;3.30;;;;;;;;;;5907725;28;20078;-78
2023/07/21 06:02:22;;;;;;;9.20;4.32;;;;;;;;;;5909188;28;20050;-78
2023/07/21 06:05:14;;;;;;;12.57;4.57;;;;;;;;;;5909046;28;20064;-78
2023/07/21 06:08:05;;;;;;;14.73;6.18;;;;;;;;;;5909021;28;20055;-78
2023/07/21 06:11:00;;;;;;;11.02;5.32;;;;;;;;;;5909480;28;20537;-78
2023/07/21 06:13:51;;;;;;;10.70;4.55;;;;;;;;;;5907906;28;20127;-77
2023/07/21 06:16:42;;;;;;;7.70;3.75;;;;;;;;;;5908563;28;20036;-76
2023/07/21 06:19:34;;;;;;;13.48;4.18;;;;;;;;;;5908578;28;20049;-78
2023/07/21 06:22:26;;;;;;;8.38;4.32;;;;;;;;;;5908701;28;20048;-78
2023/07/21 06:25:18;;;;;;;11.25;3.85;;;;;;;;;;5908518;28;20197;-77
2023/07/21 06:28:09;;;;;;;8.57;3.70;;;;;;;;;;5908500;28;20076;-78
2023/07/21 06:31:00;;;;;;;7.95;3.33;;;;;;;;;;5908790;28;20530;-77
2023/07/21 06:33:51;;;;;;;12.05;4.32;;;;;;;;;;5908609;28;20707;-76
2023/07/21 06:36:42;;;;;;;9.95;3.40;;;;;;;;;;5908252;28;20041;-77
2023/07/21 06:39:33;;;;;;;6.20;3.45;;;;;;;;;;5908227;28;20044;-76
2023/07/21 06:42:24;;;;;;;8.75;3.70;;;;;;;;;;5908697;28;20048;-78
2023/07/21 06:45:16;;;;;;;5.82;3.47;;;;;;;;;;5907929;28;20055;-77
2023/07/21 06:48:07;;;;;;;6.75;3.28;;;;;;;;;;5908301;28;20507;-76
2023/07/21 06:50:58;;;;;;;7.30;3.95;;;;;;;;;;5908522;28;20048;-79
2023/07/21 06:53:49;;;;;;;6.75;3.38;;;;;;;;;;5907913;28;20050;-77
2023/07/21 06:56:40;;;;;;;8.38;3.78;;;;;;;;;;5907894;28;20503;-78
2023/07/21 06:59:31;;;;;;;8.40;3.78;;;;;;;;;;5906312;28;20052;-78
2023/07/21 07:02:22;;;;;;;10.00;4.25;;;;;;;;;;5907841;28;20501;-76
2023/07/21 07:05:14;;;;;;;7.15;3.97;;;;;;;;;;5907690;28;20178;-78
2023/07/21 07:08:05;;;;;;;12.05;4.55;;;;;;;;;;5907873;28;20498;-77
2023/07/21 07:10:55;;;;;;;7.25;4.03;;;;;;;;;;5907157;28;20536;-79
2023/07/21 07:13:47;;;;;;;13.15;4.90;;;;;;;;;;5907471;28;20055;-78
2023/07/21 07:16:37;;;;;;;9.07;4.68;;;;;;;;;;5907745;28;20147;-78
2023/07/21 07:19:28;;;;;;;12.80;5.22;;;;;;;;;;5907710;28;20384;-78
2023/07/21 07:22:19;;;;;;;15.65;4.57;;;;;;;;;;5907266;28;20048;-78
2023/07/21 07:25:10;;;;;;;6.85;3.90;;;;;;;;;;5905757;28;20404;-78
2023/07/21 07:28:01;;;;;;;11.10;5.55;;;;;;;;;;5907415;28;20160;-78
2023/07/21 07:30:52;;;;;;;9.85;5.53;;;;;;;;;;5906314;28;20052;-77
2023/07/21 07:33:44;;;;;;;10.05;4.80;;;;;;;;;;5907010;28;20048;-77
2023/07/21 07:36:35;;;;;;;24.33;4.53;;;;;;;;;;5907078;28;20113;-79
2023/07/21 07:39:26;;;;;;;6.63;4.00;;;;;;;;;;5906950;28;20040;-77
2023/07/21 07:42:18;;;;;;;12.48;4.40;;;;;;;;;;5906860;28;20072;-78
2023/07/21 07:45:09;;;;;;;13.90;4.97;;;;;;;;;;5906633;28;20554;-78
2023/07/21 07:48:00;;;;;;;7.88;3.97;;;;;;;;;;5907116;28;20082;-77
2023/07/21 07:50:53;;;;;;;14.05;5.10;;;;;;;;;;5907049;28;20483;-77
2023/07/21 07:53:44;;;;;;;8.07;4.47;;;;;;;;;;5906580;28;20048;-78
2023/07/21 07:56:35;;;;;;;15.00;4.40;;;;;;;;;;5906571;28;20037;-78
2023/07/21 07:59:26;;;;;;;13.65;4.72;;;;;;;;;;5906797;28;20719;-78
2023/07/21 08:02:17;;;;;;;12.90;4.10;;;;;;;;;;5906488;28;20048;-79
2023/07/21 08:05:09;;;;;;;12.15;4.80;;;;;;;;;;5906458;28;20052;-78
2023/07/21 08:08:03;;;;;;;18.42;4.45;;;;;;;;;;5906889;28;20050;-77
2023/07/21 08:10:54;;;;;;;12.05;4.50;;;;;;;;;;5906530;28;20040;-77
2023/07/21 08:13:45;;;;;;;11.23;4.10;;;;;;;;;;5906075;28;20040;-78
2023/07/21 08:16:37;;;;;;;10.63;4.45;;;;;;;;;;5906216;28;20135;-76
2023/07/21 08:19:32;;;;;;;11.85;4.28;;;;;;;;;;5906071;28;20410;-78
2023/07/21 08:22:22;;;;;;;15.80;4.78;;;;;;;;;;5905695;28;20055;-78
2023/07/21 08:25:15;;;;;;;17.85;4.00;;;;;;;;;;5906256;28;20048;-79
2023/07/21 08:28:07;;;;;;;8.45;3.72;;;;;;;;;;5904411;28;20052;-77
2023/07/21 08:30:58;;;;;;;13.27;3.53;;;;;;;;;;5906830;28;20053;-78
2023/07/21 08:33:51;;;;;;;9.32;3.35;;;;;;;;;;5906027;28;20056;-77
2023/07/21 08:36:42;;;;;;;7.93;4.10;;;;;;;;;;5905829;28;20058;-78
2023/07/21 08:39:44;;;;;;;13.25;4.20;;;;;;;;;;5905830;28;20044;-78
2023/07/21 08:42:37;;;;;;;8.82;3.28;;;;;;;;;;5905983;28;20170;-78
2023/07/21 08:45:31;;;;;;;6.20;3.60;;;;;;;;;;5905812;28;20048;-78
2023/07/21 08:48:22;;;;;;;15.57;4.38;;;;;;;;;;5906230;28;20048;-78
2023/07/21 08:51:13;;;;;;;10.50;3.63;;;;;;;;;;5905970;28;20052;-78
2023/07/21 08:54:03;;;;;;;16.60;3.72;;;;;;;;;;5905975;28;20063;-78
2023/07/21 08:56:54;;;;;;;10.82;3.83;;;;;;;;;;5906392;28;20054;-77
2023/07/21 08:59:45;;;;;;;8.27;3.60;;;;;;;;;;5905403;28;20528;-78
2023/07/21 09:02:46;;;;;;;10.05;3.85;;;;;;;;;;5905569;28;20047;-77
2023/07/21 09:05:38;;;;;;;8.50;3.58;;;;;;;;;;5904216;28;20044;-78
2023/07/21 09:08:33;;;;;;;11.55;3.92;;;;;;;;;;5905849;28;20534;-78
2023/07/21 09:11:24;;;;;;;7.60;3.10;;;;;;;;;;5905814;28;20051;-78
2023/07/21 09:14:16;;;;;;;7.22;3.65;;;;;;;;;;5905627;28;20045;-78
2023/07/21 09:17:10;;;;;;;5.70;3.13;;;;;;;;;;5905536;28;20052;-78
2023/07/21 09:20:07;;;;;;;7.80;3.22;;;;;;;;;;5904736;28;20059;-77
2023/07/21 09:22:58;;;;;;;6.65;3.33;;;;;;;;;;5905639;28;20059;-79
2023/07/21 09:25:59;;;;;;;9.20;3.20;;;;;;;;;;5904947;28;20049;-80
2023/07/21 09:28:50;;;;;;;8.18;2.92;;;;;;;;;;5905702;28;20076;-78
2023/07/21 09:31:42;;;;;;;6.95;2.78;;;;;;;;;;5905329;28;20053;-77
2023/07/21 09:34:33;;;;;;;5.45;2.53;;;;;;;;;;5908310;28;20514;-77
2023/07/21 09:37:30;;;;;;;10.27;2.80;;;;;;;;;;5909509;28;20431;-77
2023/07/21 09:40:28;;;;;;;5.25;2.40;;;;;;;;;;5909372;28;20048;-77
2023/07/21 09:43:19;;;;;;;6.55;2.90;;;;;;;;;;5909647;28;20470;-77
2023/07/21 09:46:10;;;;;;;5.22;2.30;;;;;;;;;;5909850;28;20048;-79
2023/07/21 09:49:04;;;;;;;5.88;2.88;;;;;;;;;;5909524;28;20059;-78
2023/07/21 09:51:56;;;;;;;8.40;3.03;;;;;;;;;;5910109;28;20471;-78
2023/07/21 09:55:10;;;;;;;3.85;2.25;;;;;;;;;;5908028;28;20540;-79
2023/07/21 09:58:05;;;;;;;4.57;2.53;;;;;;;;;;5909345;28;20047;-79
2023/07/21 10:01:02;;;;;;;7.20;1.98;;;;;;;;;;5908186;28;20072;-79
2023/07/21 10:03:54;;;;;;;13.50;1.95;;;;;;;;;;5909568;28;20438;-77
2023/07/21 10:06:45;;;;;;;3.83;1.93;;;;;;;;;;5909404;28;20150;-79
2023/07/21 10:09:37;;;;;;;3.28;1.58;;;;;;;;;;5907654;28;20054;-78
2023/07/21 10:12:42;;;;;;;3.92;1.73;;;;;;;;;;5908141;28;20041;-76
2023/07/21 10:15:35;;;;;;;3.25;1.30;;;;;;;;;;5908935;28;20044;-78
2023/07/21 10:18:26;;;;;;;4.07;1.55;;;;;;;;;;5909340;28;20344;-77
2023/07/21 10:21:18;;;;;;;5.38;1.52;;;;;;;;;;5909115;28;20045;-78
2023/07/21 10:24:08;;;;;;;2.88;1.23;;;;;;;;;;5909149;28;20044;-79
2023/07/21 10:27:05;;;;;;;2.42;1.10;;;;;;;;;;5909415;28;20087;-78
2023/07/21 10:30:20;;;;;;;2.65;1.20;;;;;;;;;;5909262;28;20653;-78
2023/07/21 10:33:20;;;;;;;4.35;1.75;;;;;;;;;;5908844;28;20589;-78
2023/07/21 10:36:14;;;;;;;2.85;1.45;;;;;;;;;;5907220;28;20056;-77
2023/07/21 10:39:14;;;;;;;2.88;1.40;;;;;;;;;;5908546;28;20056;-77
2023/07/21 10:42:07;;;;;;;9.45;1.40;;;;;;;;;;5907039;28;20071;-78
2023/07/21 10:45:07;;;;;;;3.97;1.33;;;;;;;;;;5908593;28;20150;-80
2023/07/21 10:48:13;;;;;;;5.30;1.40;;;;;;;;;;5908188;28;20129;-78
2023/07/21 10:51:04;;;;;;;3.90;1.40;;;;;;;;;;5906374;28;20040;-79
2023/07/21 10:53:55;;;;;;;3.92;1.30;;;;;;;;;;5908896;28;20497;-79
2023/07/21 10:56:49;;;;;;;1.80;1.00;;;;;;;;;;5906563;28;20044;-77
2023/07/21 10:59:40;;;;;;;4.32;1.05;;;;;;;;;;5906245;28;20044;-78
2023/07/21 11:02:30;;;;;;;1.90;0.93;;;;;;;;;;5907875;28;20438;-78
2023/07/21 11:05:22;;;;;;;2.15;1.13;;;;;;;;;;5907733;28;22076;-79
2023/07/21 11:08:26;;;;;;;4.60;1.10;;;;;;;;;;5907688;28;20068;-78
2023/07/21 11:11:17;;;;;;;3.17;1.20;;;;;;;;;;5906338;28;20102;-77
2023/07/21 11:14:10;;;;;;;5.68;1.20;;;;;;;;;;5908059;28;20483;-79
2023/07/21 11:17:03;;;;;;;3.38;1.40;;;;;;;;;;5908293;28;20063;-78
2023/07/21 11:19:55;;;;;;;2.38;1.23;;;;;;;;;;5906824;28;20157;-78
2023/07/21 11:22:46;;;;;;;1.88;0.98;;;;;;;;;;5908231;28;20135;-78
2023/07/21 11:25:36;;;;;;;2.53;1.27;;;;;;;;;;5906414;28;20041;-79
2023/07/21 11:28:29;;;;;;;2.17;1.33;;;;;;;;;;5907286;28;20044;-79
2023/07/21 11:31:20;;;;;;;1.80;1.10;;;;;;;;;;5907239;28;20063;-80
2023/07/21 11:34:26;;;;;;;2.47;1.20;;;;;;;;;;5905958;28;20045;-79
2023/07/21 11:37:17;;;;;;;4.68;0.90;;;;;;;;;;5905866;28;20522;-78
2023/07/21 11:40:13;;;;;;;4.28;1.00;;;;;;;;;;5907008;28;20052;-79
2023/07/21 11:43:07;;;;;;;3.55;0.98;;;;;;;;;;5907181;28;20048;-79
2023/07/21 11:45:59;;;;;;;4.05;0.90;;;;;;;;;;5906550;28;20066;-79
2023/07/21 11:48:51;;;;;;;3.90;1.38;;;;;;;;;;5907462;28;20551;-78
2023/07/21 11:51:43;;;;;;;1.83;0.80;;;;;;;;;;5905518;28;20451;-79
2023/07/21 11:54:43;;;;;;;4.03;0.95;;;;;;;;;;5906571;28;20129;-80
2023/07/21 11:57:34;;;;;;;1.98;0.93;;;;;;;;;;5904539;28;20051;-78
2023/07/21 12:00:25;;;;;;;7.10;0.80;;;;;;;;;;5907020;28;20368;-80
2023/07/21 12:03:16;;;;;;;4.32;1.10;;;;;;;;;;5906988;28;20053;-79
2023/07/21 12:06:09;;;;;;;1.58;1.00;;;;;;;;;;5906394;28;20048;-79
2023/07/21 12:09:00;;;;;;;2.85;0.98;;;;;;;;;;5907120;28;20057;-78
2023/07/21 12:11:56;;;;;;;1.77;0.90;;;;;;;;;;5906713;28;20041;-78
2023/07/21 12:14:47;;;;;;;2.42;0.80;;;;;;;;;;5906223;28;20048;-79
2023/07/21 12:17:37;;;;;;;4.28;2.00;;;;;;;;;;5906570;28;20044;-78
2023/07/21 12:20:30;;;;;;;1.33;0.82;;;;;;;;;;5906323;28;20408;-80
2023/07/21 12:23:21;;;;;;;2.53;0.80;;;;;;;;;;5904932;28;20506;-79
2023/07/21 12:26:12;;;;;;;2.60;0.80;;;;;;;;;;5905234;28;20178;-80
2023/07/21 12:29:03;;;;;;;2.40;0.75;;;;;;;;;;5900293;28;20044;-81
2023/07/21 12:31:54;;;;;;;3.55;1.40;;;;;;;;;;5902225;28;20049;-80
2023/07/21 12:34:45;;;;;;;2.33;1.02;;;;;;;;;;5895762;28;20040;-81
2023/07/21 12:37:39;;;;;;;2.60;0.80;;;;;;;;;;5890927;28;20056;-80
2023/07/21 12:40:30;;;;;;;2.53;0.90;;;;;;;;;;5901165;28;20131;-81
2023/07/21 12:43:21;;;;;;;6.00;1.15;;;;;;;;;;5905048;28;20052;-80
2023/07/21 12:46:14;;;;;;;2.67;1.10;;;;;;;;;;5905091;28;20374;-80
2023/07/21 12:49:05;;;;;;;1.45;0.90;;;;;;;;;;5901924;28;20066;-80
2023/07/21 12:51:56;;;;;;;5.97;1.05;;;;;;;;;;5905395;28;20501;-80
2023/07/21 12:54:47;;;;;;;1.48;0.93;;;;;;;;;;5901604;28;20045;-80
2023/07/21 12:57:38;;;;;;;4.00;0.95;;;;;;;;;;5901320;28;20036;-79
2023/07/21 13:00:29;;;;;;;1.95;0.95;;;;;;;;;;5905042;28;20046;-78
2023/07/21 13:03:20;;;;;;;1.27;0.88;;;;;;;;;;5905221;28;20063;-78
2023/07/21 13:06:12;;;;;;;2.92;1.02;;;;;;;;;;5905365;28;20082;-78
2023/07/21 13:09:04;;;;;;;1.80;1.08;;;;;;;;;;5907829;28;20052;-79
2023/07/21 13:11:56;;;;;;;1.98;1.02;;;;;;;;;;5910485;28;20131;-78
2023/07/21 13:14:47;;;;;;;2.10;1.20;;;;;;;;;;5909781;28;20045;-78
2023/07/21 13:17:38;;;;;;;1.77;1.10;;;;;;;;;;5907982;28;20513;-80
2023/07/21 13:20:29;;;;;;;1.52;1.02;;;;;;;;;;5903154;28;20041;-80
2023/07/21 13:23:19;;;;;;;4.18;1.30;;;;;;;;;;5888288;28;20049;-78
2023/07/21 13:26:12;;;;;;;8.88;1.75;;;;;;;;;;5892510;28;20400;-81
2023/07/21 13:29:03;;;;;;;7.53;1.30;;;;;;;;;;5909174;28;20051;-79
2023/07/21 13:31:53;;;;;;;2.85;1.33;;;;;;;;;;5909345;28;20422;-79
2023/07/21 13:34:44;;;;;;;2.95;1.30;;;;;;;;;;5908680;28;20048;-81
2023/07/21 13:37:35;;;;;;;1.73;1.15;;;;;;;;;;5907423;28;20049;-81
2023/07/21 13:40:26;;;;;;;2.03;1.17;;;;;;;;;;5909524;28;20051;-79
2023/07/21 13:43:17;;;;;;;2.03;0.95;;;;;;;;;;5932391;28;20047;-79
2023/07/21 13:46:08;;;;;;;2.22;1.10;;;;;;;;;;5916160;28;20426;-81
2023/07/21 13:48:59;;;;;;;1.80;0.95;;;;;;;;;;5914442;28;20525;-80
2023/07/21 13:51:50;;;;;;;2.13;1.15;;;;;;;;;;5908411;28;20048;-78
2023/07/21 13:54:40;;;;;;;2.72;1.55;;;;;;;;;;5900775;28;20404;-79
2023/07/21 13:57:31;;;;;;;2.83;1.05;;;;;;;;;;5906536;28;20048;-80
2023/07/21 14:00:22;;;;;;;5.53;1.15;;;;;;;;;;5908627;28;20052;-80
2023/07/21 14:03:13;;;;;;;3.15;1.23;;;;;;;;;;5908609;28;20124;-80
2023/07/21 14:06:04;;;;;;;2.22;1.27;;;;;;;;;;5908109;28;20057;-81
2023/07/21 14:08:56;;;;;;;2.05;1.27;;;;;;;;;;5907113;28;20044;-78
2023/07/21 14:11:47;;;;;;;1.25;0.90;;;;;;;;;;5908282;28;20040;-79
2023/07/21 14:14:37;;;;;;;1.90;0.90;;;;;;;;;;5908232;28;20041;-80
2023/07/21 14:17:29;;;;;;;1.65;1.10;;;;;;;;;;5907736;28;20843;-77
2023/07/21 14:20:19;;;;;;;5.80;1.02;;;;;;;;;;5907977;28;20411;-77
2023/07/21 14:23:11;;;;;;;3.95;0.90;;;;;;;;;;5882403;28;20048;-79
2023/07/21 14:26:02;;;;;;;3.08;1.35;;;;;;;;;;5889898;28;20044;-81
2023/07/21 14:28:53;;;;;;;2.13;1.20;;;;;;;;;;5915720;28;20419;-79
2023/07/21 14:31:44;;;;;;;3.92;1.10;;;;;;;;;;5906800;28;20040;-81
2023/07/21 14:34:34;;;;;;;3.53;1.23;;;;;;;;;;5898695;28;20045;-82
2023/07/21 14:37:25;;;;;;;2.33;1.10;;;;;;;;;;5906395;28;20132;-80
2023/07/21 14:40:17;;;;;;;1.67;1.02;;;;;;;;;;5901948;28;20524;-78
2023/07/21 14:43:08;;;;;;;4.30;1.48;;;;;;;;;;5896802;28;20132;-80
2023/07/21 14:45:59;;;;;;;8.35;1.35;;;;;;;;;;5894210;28;20044;-79
2023/07/21 14:48:50;;;;;;;2.83;1.63;;;;;;;;;;5895166;28;20657;-77
2023/07/21 14:51:41;;;;;;;2.50;1.10;;;;;;;;;;5893766;28;20048;-79
2023/07/21 14:54:32;;;;;;;2.53;1.42;;;;;;;;;;5893669;28;20123;-77
2023/07/21 14:57:24;;;;;;;4.93;1.00;;;;;;;;;;5896404;28;20044;-77
2023/07/21 15:00:20;;;;;;;3.30;1.35;;;;;;;;;;5896509;28;20696;-77
2023/07/21 15:03:11;;;;;;;2.33;1.50;;;;;;;;;;5889714;28;20060;-76
2023/07/21 15:06:02;;;;;;;3.00;1.50;;;;;;;;;;5893448;28;20052;-78
2023/07/21 15:08:53;;;;;;;6.05;1.40;;;;;;;;;;5895353;28;20044;-78
2023/07/21 15:11:43;;;;;;;2.35;1.58;;;;;;;;;;5897827;28;20048;-77
2023/07/21 15:14:35;;;;;;;2.78;1.52;;;;;;;;;;5893023;28;20141;-77
2023/07/21 15:17:25;;;;;;;4.78;1.70;;;;;;;;;;5893583;28;20048;-77
2023/07/21 15:20:16;;;;;;;1.40;0.90;;;;;;;;;;5895213;28;20044;-78
2023/07/21 15:23:07;;;;;;;4.88;1.15;;;;;;;;;;5893769;28;20516;-76
2023/07/21 15:25:58;;;;;;;6.30;1.60;;;;;;;;;;5894123;28;20056;-79
2023/07/21 15:28:49;;;;;;;2.78;1.10;;;;;;;;;;5894980;28;20052;-81
2023/07/21 15:31:40;;;;;;;5.57;1.58;;;;;;;;;;5892742;28;20506;-80
2023/07/21 15:34:31;;;;;;;3.10;1.60;;;;;;;;;;5893887;28;20514;-83
2023/07/21 15:37:22;;;;;;;1.85;1.15;;;;;;;;;;5899893;28;20052;-80
2023/07/21 15:40:14;;;;;;;2.00;1.40;;;;;;;;;;5906617;28;20049;-81
2023/07/21 15:43:05;;;;;;;1.90;1.25;;;;;;;;;;5930198;28;20217;-80
2023/07/21 15:45:56;;;;;;;1.75;1.30;;;;;;;;;;5925251;28;20059;-81
2023/07/21 15:48:47;;;;;;;3.50;1.48;;;;;;;;;;5906562;28;20495;-80
2023/07/21 15:51:37;;;;;;;3.75;1.90;;;;;;;;;;5907980;28;20040;-78
2023/07/21 15:54:29;;;;;;;5.07;1.55;;;;;;;;;;5907515;28;20320;-79
2023/07/21 15:57:20;;;;;;;3.67;1.80;;;;;;;;;;5909220;28;20163;-77
2023/07/21 16:00:14;;;;;;;4.15;1.92;;;;;;;;;;5917692;28;20521;-79
2023/07/21 16:03:05;;;;;;;4.30;1.75;;;;;;;;;;5907552;28;20078;-80
2023/07/21 16:05:57;;;;;;;3.33;1.65;;;;;;;;;;5906820;28;20059;-78
2023/07/21 16:08:50;;;;;;;6.22;1.52;;;;;;;;;;5905218;28;20052;-80
2023/07/21 16:11:41;;;;;;;3.25;1.50;;;;;;;;;;5907089;28;20049;-79
2023/07/21 16:14:32;;;;;;;4.55;1.73;;;;;;;;;;5907993;28;20051;-78
2023/07/21 16:17:23;;;;;;;3.58;1.63;;;;;;;;;;5906856;28;20415;-79
2023/07/21 16:20:14;;;;;;;3.72;1.40;;;;;;;;;;5905631;28;20045;-79
2023/07/21 16:23:05;;;;;;;4.32;2.00;;;;;;;;;;5906049;28;20056;-79
2023/07/21 16:25:55;;;;;;;3.75;1.60;;;;;;;;;;5905868;28;20143;-77
2023/07/21 16:28:46;;;;;;;5.18;1.95;;;;;;;;;;5905835;28;20055;-78
2023/07/21 16:31:37;;;;;;;12.52;1.85;;;;;;;;;;5905410;28;20044;-78
2023/07/21 16:34:38;;;;;;;3.00;1.50;;;;;;;;;;5905551;28;20576;-79
2023/07/21 16:37:29;;;;;;;8.35;1.70;;;;;;;;;;5904039;28;20048;-80
2023/07/21 16:40:21;;;;;;;5.78;1.70;;;;;;;;;;5905286;28;20190;-78
2023/07/21 16:43:13;;;;;;;6.05;1.88;;;;;;;;;;5905378;28;20103;-80
2023/07/21 16:46:08;;;;;;;7.78;2.17;;;;;;;;;;5904758;28;20463;-79
2023/07/21 16:48:59;;;;;;;3.10;1.52;;;;;;;;;;5905791;28;20762;-76
2023/07/21 16:51:51;;;;;;;2.80;1.48;;;;;;;;;;5904711;28;20414;-83
2023/07/21 16:54:42;;;;;;;8.00;1.35;;;;;;;;;;5893577;28;20063;-82
2023/07/21 16:57:33;;;;;;;15.02;1.73;;;;;;;;;;5905081;28;20048;-79
2023/07/21 17:00:24;;;;;;;2.08;1.33;;;;;;;;;;5904947;28;20509;-79
2023/07/21 17:03:15;;;;;;;7.90;3.30;;;;;;;;;;5905361;28;20053;-83
2023/07/21 17:06:06;;;;;;;27.95;2.50;;;;;;;;;;5896587;28;20052;-79
2023/07/21 17:08:57;;;;;;;36.53;2.70;;;;;;;;;;5920744;28;20062;-79